Terminal Aerodrome Forecast
Issued by NWS Mt. Holly, NJ

Home | Current Version | Previous Version | Text Only | Print | Product List | Glossary On
Versions: 1 2 3 4 5 6 7 8 9 10 11 12 13 14 15 16 17 18 19 20 21 22 23
000
FTUS41 KPHI 191700
TAFABE
TAF
KABE 191737Z 1918/2018 31011G18KT P6SM BKN035
     FM192100 32007KT P6SM BKN035
     FM200000 33005KT P6SM SCT035 SCT200
     FM201300 VRB03KT P6SM SCT030 BKN200=

USA.gov is the U.S. government's official web portal to all federal, state and local government web resources and services.